createdAt,value
2018-02-27T00:01:50.700Z,-7.10
2018-02-27T00:04:18.564Z,-7.10
2018-02-27T00:06:46.604Z,-7.10
2018-02-27T00:09:14.470Z,-7.10
2018-02-27T00:11:42.747Z,-7.10
2018-02-27T00:14:10.331Z,-7.20
2018-02-27T00:16:37.966Z,-7.10
2018-02-27T00:19:05.687Z,-7.20
2018-02-27T00:21:40.704Z,-7.20
2018-02-27T00:24:08.432Z,-7.20
2018-02-27T00:26:37.422Z,-7.20
2018-02-27T00:29:05.790Z,-7.20
2018-02-27T00:31:34.380Z,-7.20
2018-02-27T00:34:02.719Z,-7.20
2018-02-27T00:36:30.268Z,-7.20
2018-02-27T00:38:57.917Z,-7.20
2018-02-27T00:41:25.585Z,-7.20
2018-02-27T00:43:54.208Z,-7.20
2018-02-27T00:46:22.520Z,-7.20
2018-02-27T00:48:50.240Z,-7.20
2018-02-27T00:51:18.382Z,-7.20
2018-02-27T00:53:45.946Z,-7.20
2018-02-27T00:56:13.560Z,-7.20
2018-02-27T00:58:41.877Z,-7.20
2018-02-27T01:01:10.183Z,-7.20
2018-02-27T01:03:38.224Z,-7.20
2018-02-27T01:06:05.808Z,-7.20
2018-02-27T01:08:33.374Z,-7.20
2018-02-27T01:11:00.930Z,-7.30
2018-02-27T01:13:28.513Z,-7.30
2018-02-27T01:15:56.048Z,-7.30
2018-02-27T01:18:23.605Z,-7.30
2018-02-27T01:20:51.163Z,-7.30
2018-02-27T01:23:18.723Z,-7.30
2018-02-27T01:25:46.261Z,-7.40
2018-02-27T01:28:13.981Z,-7.40
2018-02-27T01:30:41.595Z,-7.40
2018-02-27T01:33:09.193Z,-7.40
2018-02-27T01:35:36.762Z,-7.40
2018-02-27T01:38:04.321Z,-7.40
2018-02-27T01:40:31.918Z,-7.40
2018-02-27T01:42:59.535Z,-7.50
2018-02-27T01:45:27.105Z,-7.50
2018-02-27T01:47:54.711Z,-7.50
2018-02-27T01:50:22.223Z,-7.50
2018-02-27T01:52:50.909Z,-7.50
2018-02-27T01:55:18.471Z,-7.50
2018-02-27T01:57:46.213Z,-7.50
2018-02-27T02:00:13.916Z,-7.50
2018-02-27T02:02:41.491Z,-7.50
2018-02-27T02:05:09.034Z,-7.50
2018-02-27T02:07:36.569Z,-7.50
2018-02-27T02:10:04.086Z,-7.50
2018-02-27T02:12:31.663Z,-7.60
2018-02-27T02:14:59.256Z,-7.60
2018-02-27T02:17:27.655Z,-7.60
2018-02-27T02:19:55.303Z,-7.60
2018-02-27T02:22:23.613Z,-7.60
2018-02-27T02:24:51.118Z,-7.60
2018-02-27T02:27:19.865Z,-7.60
2018-02-27T02:29:47.390Z,-7.60
2018-02-27T02:32:14.948Z,-7.60
2018-02-27T02:34:43.774Z,-7.60
2018-02-27T02:37:11.326Z,-7.60
2018-02-27T02:39:38.850Z,-7.60
2018-02-27T02:42:23.939Z,-7.60
2018-02-27T02:44:51.583Z,-7.60
2018-02-27T02:47:19.163Z,-7.70
2018-02-27T02:49:46.718Z,-7.70
2018-02-27T02:52:14.216Z,-7.70
2018-02-27T02:54:41.761Z,-7.70
2018-02-27T02:57:09.318Z,-7.70
2018-02-27T02:59:36.945Z,-7.80
2018-02-27T03:02:04.498Z,-7.80
2018-02-27T03:04:32.877Z,-7.80
2018-02-27T03:07:00.822Z,-7.80
2018-02-27T03:09:28.375Z,-7.80
2018-02-27T03:11:55.883Z,-7.80
2018-02-27T03:14:23.517Z,-7.90
2018-02-27T03:16:51.063Z,-7.80
2018-02-27T03:19:18.624Z,-7.90
2018-02-27T03:21:46.197Z,-7.90
2018-02-27T03:24:13.973Z,-7.90
2018-02-27T03:26:41.506Z,-7.90
2018-02-27T03:29:09.080Z,-7.90
2018-02-27T03:31:37.638Z,-7.90
2018-02-27T03:34:05.221Z,-7.90
2018-02-27T03:36:32.757Z,-7.90
2018-02-27T03:39:00.307Z,-7.90
2018-02-27T03:41:27.916Z,-7.90
2018-02-27T03:43:56.246Z,-7.90
2018-02-27T03:46:23.780Z,-7.90
2018-02-27T03:48:51.371Z,-7.90
2018-02-27T03:51:18.964Z,-7.90
2018-02-27T03:53:46.700Z,-7.90
2018-02-27T03:56:14.332Z,-7.90
2018-02-27T03:58:42.040Z,-7.90
2018-02-27T04:01:09.612Z,-7.90
2018-02-27T04:03:37.312Z,-7.90
2018-02-27T04:06:05.005Z,-7.90
2018-02-27T04:08:32.565Z,-7.90
2018-02-27T04:11:00.145Z,-7.90
2018-02-27T04:13:27.752Z,-7.90
2018-02-27T04:15:55.362Z,-7.90
2018-02-27T04:18:23.024Z,-8.00
2018-02-27T04:20:50.665Z,-8.00
2018-02-27T04:23:18.246Z,-8.00
2018-02-27T04:25:47.369Z,-8.00
2018-02-27T04:28:14.980Z,-8.00
2018-02-27T04:30:42.547Z,-8.00
2018-02-27T04:33:10.067Z,-8.00
2018-02-27T04:35:37.704Z,-8.00
2018-02-27T04:38:06.066Z,-8.00
2018-02-27T04:40:33.624Z,-8.10
2018-02-27T04:43:01.203Z,-8.00
2018-02-27T04:45:29.593Z,-8.10
2018-02-27T04:47:57.915Z,-8.00
2018-02-27T04:50:25.476Z,-8.10
2018-02-27T04:52:53.032Z,-8.00
2018-02-27T04:55:20.621Z,-8.00
2018-02-27T04:57:48.343Z,-8.00
2018-02-27T05:00:15.885Z,-8.00
2018-02-27T05:02:43.448Z,-8.00
2018-02-27T05:05:11.040Z,-8.00
2018-02-27T05:07:38.567Z,-8.00
2018-02-27T05:10:06.207Z,-8.00
2018-02-27T05:12:33.748Z,-8.00
2018-02-27T05:15:01.273Z,-8.00
2018-02-27T05:17:28.831Z,-8.00
2018-02-27T05:19:56.670Z,-8.00
2018-02-27T05:22:24.259Z,-7.90
2018-02-27T05:24:52.537Z,-7.90
2018-02-27T05:27:20.129Z,-7.90
2018-02-27T05:29:47.719Z,-7.80
2018-02-27T05:32:15.425Z,-7.80
2018-02-27T05:34:43.054Z,-7.80
2018-02-27T05:37:10.687Z,-7.80
2018-02-27T05:39:38.275Z,-7.80
2018-02-27T05:42:05.838Z,-7.70
2018-02-27T05:44:33.380Z,-7.70
2018-02-27T05:47:01.144Z,-7.70
2018-02-27T05:49:28.705Z,-7.70
2018-02-27T05:51:56.280Z,-7.80
2018-02-27T05:54:23.835Z,-7.80
2018-02-27T05:56:52.158Z,-7.80
2018-02-27T05:59:19.739Z,-7.80
2018-02-27T06:01:47.321Z,-7.80
2018-02-27T06:04:14.898Z,-7.80
2018-02-27T06:06:42.496Z,-7.80
2018-02-27T06:09:10.198Z,-7.70
2018-02-27T06:11:37.774Z,-7.70
2018-02-27T06:14:05.398Z,-7.60
2018-02-27T06:16:33.699Z,-7.50
2018-02-27T06:19:02.098Z,-7.30
2018-02-27T06:21:29.761Z,-7.30
2018-02-27T06:23:57.308Z,-7.10
2018-02-27T06:26:25.837Z,-6.40
2018-02-27T06:28:53.399Z,-6.50
2018-02-27T06:31:21.116Z,-6.00
2018-02-27T06:33:49.641Z,-5.50
2018-02-27T06:36:17.265Z,-5.50
2018-02-27T06:38:44.823Z,-5.30
2018-02-27T06:41:12.412Z,-5.10
2018-02-27T06:43:39.980Z,-4.70
2018-02-27T06:46:07.867Z,-4.20
2018-02-27T06:48:35.425Z,-3.80
2018-02-27T06:51:03.089Z,-3.40
2018-02-27T06:53:31.428Z,-2.70
2018-02-27T06:55:59.029Z,-2.70
2018-02-27T06:58:26.676Z,-2.40
2018-02-27T07:00:54.340Z,-2.20
2018-02-27T07:03:21.918Z,-2.10
2018-02-27T07:05:49.471Z,-2.00
2018-02-27T07:08:16.992Z,-1.90
2018-02-27T07:10:44.651Z,-1.70
2018-02-27T07:13:12.230Z,-1.40
2018-02-27T07:15:39.810Z,-0.90
2018-02-27T07:18:07.368Z,-0.50
2018-02-27T07:20:34.879Z,0.00
2018-02-27T07:23:02.476Z,0.20
2018-02-27T07:25:30.082Z,0.50
2018-02-27T07:27:57.700Z,0.50
2018-02-27T07:30:25.587Z,0.50
2018-02-27T07:32:53.603Z,0.40
2018-02-27T07:35:21.270Z,0.20
2018-02-27T07:37:48.875Z,0.10
2018-02-27T07:40:16.446Z,0.10
2018-02-27T07:42:44.073Z,0.20
2018-02-27T07:45:11.630Z,0.00
2018-02-27T07:47:39.219Z,-0.30
2018-02-27T07:50:06.875Z,-0.40
2018-02-27T07:52:34.634Z,-0.60
2018-02-27T07:55:02.383Z,-0.70
2018-02-27T07:57:29.961Z,-0.80
2018-02-27T07:59:57.525Z,-0.90
2018-02-27T08:02:25.111Z,-1.10
2018-02-27T08:04:52.664Z,-1.20
2018-02-27T08:07:20.176Z,-1.30
2018-02-27T08:09:47.766Z,-1.30
2018-02-27T08:12:15.414Z,-1.40
2018-02-27T08:14:43.041Z,-1.60
2018-02-27T08:17:10.648Z,-1.60
2018-02-27T08:19:38.198Z,-1.70
2018-02-27T08:22:05.772Z,-1.70
2018-02-27T08:24:33.304Z,-1.50
2018-02-27T08:27:00.795Z,-1.30
2018-02-27T08:29:28.528Z,-1.10
2018-02-27T08:31:56.062Z,-1.10
2018-02-27T08:34:23.734Z,-1.20
2018-02-27T08:36:51.266Z,-1.30
2018-02-27T08:39:18.779Z,-1.30
2018-02-27T08:41:46.316Z,-1.00
2018-02-27T08:44:13.953Z,-0.90
2018-02-27T08:46:41.483Z,-0.70
2018-02-27T08:49:09.027Z,-0.40
2018-02-27T08:51:36.581Z,-0.20
2018-02-27T08:54:04.215Z,0.10
2018-02-27T08:56:31.803Z,0.40
2018-02-27T08:58:59.338Z,0.70
2018-02-27T09:01:26.882Z,1.00
2018-02-27T09:03:54.687Z,1.20
2018-02-27T09:06:22.262Z,1.30
2018-02-27T09:08:50.301Z,1.30
2018-02-27T09:11:17.976Z,1.30
2018-02-27T09:13:46.867Z,1.40
2018-02-27T09:16:14.416Z,1.50
2018-02-27T09:18:42.030Z,1.60
2018-02-27T09:21:10.315Z,1.90
2018-02-27T09:23:38.630Z,1.70
2018-02-27T09:26:06.308Z,1.70
2018-02-27T09:28:33.915Z,1.70
2018-02-27T09:31:02.214Z,1.60
2018-02-27T09:33:29.800Z,1.50
2018-02-27T09:35:57.297Z,1.50
2018-02-27T09:38:25.650Z,1.30
2018-02-27T09:40:53.132Z,1.30
2018-02-27T09:43:21.446Z,1.50
2018-02-27T09:45:48.940Z,1.50
2018-02-27T09:48:16.473Z,1.70
2018-02-27T09:50:44.141Z,1.70
2018-02-27T09:53:11.659Z,1.60
2018-02-27T09:55:39.973Z,1.10
2018-02-27T09:58:08.975Z,1.10
2018-02-27T10:00:36.480Z,0.90
2018-02-27T10:03:04.017Z,0.80
2018-02-27T10:05:31.631Z,0.60
2018-02-27T10:07:59.148Z,0.50
2018-02-27T10:10:26.671Z,0.20
2018-02-27T10:12:55.087Z,0.10
2018-02-27T10:15:22.656Z,0.10
2018-02-27T10:17:50.972Z,0.20
2018-02-27T10:20:18.772Z,0.20
2018-02-27T10:22:46.298Z,0.20
2018-02-27T10:25:13.832Z,0.20
2018-02-27T10:27:42.383Z,-0.10
2018-02-27T10:30:10.204Z,-0.10
2018-02-27T10:32:38.136Z,-0.40
2018-02-27T10:35:05.704Z,-0.60
2018-02-27T10:37:33.971Z,-0.80
2018-02-27T10:40:01.681Z,-0.80
2018-02-27T10:42:29.229Z,-0.80
2018-02-27T10:44:57.951Z,-0.80
2018-02-27T10:47:25.458Z,-0.80
2018-02-27T10:49:52.997Z,-1.10
2018-02-27T10:52:21.270Z,-1.40
2018-02-27T10:54:49.658Z,-1.30
2018-02-27T10:57:18.992Z,-1.10
2018-02-27T10:59:46.531Z,-1.20
2018-02-27T11:02:14.807Z,-0.90
2018-02-27T11:04:42.362Z,-0.90
2018-02-27T11:07:09.922Z,-0.80
2018-02-27T11:09:38.226Z,-0.60
2018-02-27T11:12:05.777Z,-0.60
2018-02-27T11:14:33.370Z,-0.50
2018-02-27T11:17:00.929Z,-0.40
2018-02-27T11:19:28.463Z,-0.30
2018-02-27T11:21:56.879Z,0.00
2018-02-27T11:24:24.598Z,0.00
2018-02-27T11:26:52.193Z,-0.10
2018-02-27T11:29:19.822Z,-0.10
2018-02-27T11:31:47.421Z,0.10
2018-02-27T11:34:15.021Z,0.30
2018-02-27T11:36:42.554Z,0.50
2018-02-27T11:39:10.818Z,0.70
2018-02-27T11:41:38.367Z,0.70
2018-02-27T11:44:05.961Z,0.60
2018-02-27T11:46:33.519Z,0.80
2018-02-27T11:49:01.840Z,0.60
2018-02-27T11:51:29.438Z,0.50
2018-02-27T11:53:57.702Z,0.60
2018-02-27T11:56:25.431Z,0.70
2018-02-27T11:58:52.952Z,0.70
2018-02-27T12:01:20.481Z,0.90
2018-02-27T12:03:48.034Z,0.80
2018-02-27T12:06:15.620Z,0.60
2018-02-27T12:08:43.158Z,0.80
2018-02-27T12:11:10.694Z,0.70
2018-02-27T12:13:38.200Z,0.60
2018-02-27T12:16:05.846Z,0.70
2018-02-27T12:18:33.384Z,0.70
2018-02-27T12:21:00.963Z,0.70
2018-02-27T12:23:28.487Z,0.90
2018-02-27T12:25:56.190Z,1.00
2018-02-27T12:28:24.627Z,1.00
2018-02-27T12:30:52.203Z,1.20
2018-02-27T12:33:19.816Z,1.10
2018-02-27T12:35:47.323Z,1.10
2018-02-27T12:38:15.054Z,1.10
2018-02-27T12:40:43.382Z,0.60
2018-02-27T12:43:10.911Z,0.60
2018-02-27T12:45:38.448Z,0.60
2018-02-27T12:48:06.778Z,0.60
2018-02-27T12:50:34.308Z,0.50
2018-02-27T12:53:01.896Z,0.30
2018-02-27T12:55:29.407Z,0.20
2018-02-27T12:57:56.964Z,0.20
2018-02-27T13:00:24.535Z,0.20
2018-02-27T13:02:52.098Z,0.20
2018-02-27T13:05:19.808Z,0.30
2018-02-27T13:07:47.465Z,0.50
2018-02-27T13:10:15.022Z,0.50
2018-02-27T13:12:42.632Z,0.40
2018-02-27T13:15:10.326Z,0.40
2018-02-27T13:17:38.688Z,0.50
2018-02-27T13:20:06.220Z,0.70
2018-02-27T13:22:33.847Z,0.70
2018-02-27T13:25:01.414Z,0.70
2018-02-27T13:27:30.272Z,1.00
2018-02-27T13:29:57.947Z,1.00
2018-02-27T13:32:25.513Z,1.00
2018-02-27T13:34:53.027Z,0.80
2018-02-27T13:37:20.685Z,0.70
2018-02-27T13:39:48.376Z,0.60
2018-02-27T13:42:15.910Z,0.50
2018-02-27T13:44:43.464Z,0.60
2018-02-27T13:47:10.982Z,0.80
2018-02-27T13:49:38.926Z,0.60
2018-02-27T13:52:06.793Z,0.60
2018-02-27T13:54:34.325Z,0.50
2018-02-27T13:57:02.928Z,1.00
2018-02-27T13:59:31.020Z,1.00
2018-02-27T14:01:58.703Z,1.10
2018-02-27T14:04:26.289Z,0.90
2018-02-27T14:06:54.754Z,0.60
2018-02-27T14:09:22.387Z,0.30
2018-02-27T14:11:50.268Z,0.30
2018-02-27T14:14:19.165Z,0.30
2018-02-27T14:16:46.835Z,0.20
2018-02-27T14:21:50.335Z,-0.10
2018-02-27T14:24:17.914Z,-0.10
2018-02-27T14:26:45.488Z,0.00
2018-02-27T14:29:13.149Z,0.10
2018-02-27T14:31:40.945Z,0.30
2018-02-27T14:34:08.460Z,0.10
2018-02-27T14:36:36.056Z,-0.20
2018-02-27T14:39:03.698Z,-0.60
2018-02-27T14:41:31.996Z,-0.60
2018-02-27T14:43:59.561Z,-0.60
2018-02-27T14:46:27.153Z,-0.60
2018-02-27T14:48:54.810Z,-0.80
2018-02-27T14:51:22.354Z,-0.90
2018-02-27T14:53:49.926Z,-1.10
2018-02-27T14:56:17.490Z,-1.10
2018-02-27T14:58:45.588Z,-1.30
2018-02-27T15:01:13.222Z,-1.50
2018-02-27T15:03:40.765Z,-1.50
2018-02-27T15:06:09.936Z,-1.60
2018-02-27T15:08:38.348Z,-1.60
2018-02-27T15:11:05.891Z,-1.60
2018-02-27T15:13:34.229Z,-1.70
2018-02-27T15:16:03.785Z,-1.70
2018-02-27T15:18:31.555Z,-1.70
2018-02-27T15:20:59.117Z,-1.80
2018-02-27T15:23:26.927Z,-2.00
2018-02-27T15:25:54.680Z,-2.20
2018-02-27T15:28:22.572Z,-2.30
2018-02-27T15:30:50.143Z,-2.30
2018-02-27T15:33:18.492Z,-2.50
2018-02-27T15:35:46.045Z,-2.60
2018-02-27T15:38:14.347Z,-2.50
2018-02-27T15:40:41.937Z,-2.60
2018-02-27T15:43:09.708Z,-2.50
2018-02-27T15:45:37.477Z,-2.60
2018-02-27T15:48:05.062Z,-2.50
2018-02-27T15:50:32.674Z,-2.40
2018-02-27T15:53:01.017Z,-2.30
2018-02-27T15:55:28.585Z,-2.40
2018-02-27T15:57:58.544Z,-2.50
2018-02-27T16:00:26.069Z,-2.50
2018-02-27T16:02:53.728Z,-2.50
2018-02-27T16:05:22.058Z,-2.90
2018-02-27T16:07:50.478Z,-2.90
2018-02-27T16:10:18.047Z,-3.10
2018-02-27T16:12:45.848Z,-3.20
2018-02-27T16:15:13.412Z,-3.20
2018-02-27T16:17:41.065Z,-3.30
2018-02-27T16:20:08.763Z,-3.20
2018-02-27T16:22:36.281Z,-3.30
2018-02-27T16:25:03.916Z,-3.30
2018-02-27T16:27:31.631Z,-3.30
2018-02-27T16:29:59.209Z,-3.30
2018-02-27T16:32:27.334Z,-3.40
2018-02-27T16:34:55.565Z,-3.50
2018-02-27T16:37:23.094Z,-3.70
2018-02-27T16:39:50.650Z,-3.80
2018-02-27T16:42:18.366Z,-3.90
2018-02-27T16:44:45.955Z,-4.00
2018-02-27T16:47:13.618Z,-4.00
2018-02-27T16:49:41.275Z,-4.00
2018-02-27T16:52:08.816Z,-4.00
2018-02-27T16:54:36.402Z,-4.10
2018-02-27T16:57:04.115Z,-4.10
2018-02-27T16:59:31.748Z,-4.20
2018-02-27T17:01:59.365Z,-4.20
2018-02-27T17:04:27.725Z,-4.20
2018-02-27T17:06:56.063Z,-4.30
2018-02-27T17:09:23.620Z,-4.30
2018-02-27T17:11:51.159Z,-4.30
2018-02-27T17:14:18.753Z,-4.30
2018-02-27T17:16:46.297Z,-4.40
2018-02-27T17:19:13.957Z,-4.40
2018-02-27T17:21:41.733Z,-4.50
2018-02-27T17:24:09.296Z,-4.60
2018-02-27T17:26:37.277Z,-4.60
2018-02-27T17:29:04.865Z,-4.60
2018-02-27T17:31:33.299Z,-4.70
2018-02-27T17:36:35.500Z,-4.80
2018-02-27T17:39:03.123Z,-4.80
2018-02-27T17:41:30.688Z,-4.80
2018-02-27T17:43:58.568Z,-4.80
2018-02-27T17:46:26.169Z,-4.80
2018-02-27T17:48:54.484Z,-5.00
2018-02-27T17:51:22.083Z,-5.10
2018-02-27T17:53:49.659Z,-5.10
2018-02-27T17:56:17.219Z,-5.10
2018-02-27T17:58:44.785Z,-5.20
2018-02-27T18:01:12.307Z,-5.20
2018-02-27T18:03:39.854Z,-5.30
2018-02-27T18:06:07.366Z,-5.30
2018-02-27T18:08:34.948Z,-5.30
2018-02-27T18:11:03.515Z,-5.40
2018-02-27T18:13:31.902Z,-5.40
2018-02-27T18:15:59.794Z,-5.40
2018-02-27T18:18:29.058Z,-5.50
2018-02-27T18:20:56.843Z,-5.60
2018-02-27T18:23:25.538Z,-5.60
2018-02-27T18:25:54.088Z,-5.60
2018-02-27T18:28:22.979Z,-5.60
2018-02-27T18:30:50.802Z,-5.70
2018-02-27T18:33:18.361Z,-5.70
2018-02-27T18:35:45.945Z,-5.70
2018-02-27T18:38:13.739Z,-5.70
2018-02-27T18:40:41.877Z,-5.80
2018-02-27T18:43:14.385Z,-5.80
2018-02-27T18:45:45.967Z,-5.80
2018-02-27T18:48:15.688Z,-5.90
2018-02-27T18:50:46.255Z,-5.90
2018-02-27T18:53:14.431Z,-5.90
2018-02-27T18:55:44.001Z,-5.90
2018-02-27T18:58:15.475Z,-5.90
2018-02-27T19:00:43.226Z,-5.90
2018-02-27T19:03:10.882Z,-6.00
2018-02-27T19:05:38.600Z,-6.00
2018-02-27T19:08:06.281Z,-5.90
2018-02-27T19:10:35.117Z,-5.90
2018-02-27T19:13:03.372Z,-6.00
2018-02-27T19:15:31.669Z,-5.90
2018-02-27T19:17:59.429Z,-5.80
2018-02-27T19:20:28.565Z,-5.90
2018-02-27T19:22:56.447Z,-5.90
2018-02-27T19:25:24.253Z,-5.90
2018-02-27T19:27:52.029Z,-5.90
2018-02-27T19:30:19.905Z,-5.90
2018-02-27T19:32:47.472Z,-6.00
2018-02-27T19:35:15.015Z,-6.00
2018-02-27T19:37:42.667Z,-6.00
2018-02-27T19:40:10.412Z,-6.10
2018-02-27T19:42:37.993Z,-6.10
2018-02-27T19:45:05.590Z,-6.10
2018-02-27T19:47:33.200Z,-6.10
2018-02-27T19:50:00.838Z,-6.10
2018-02-27T19:52:29.592Z,-6.10
2018-02-27T19:54:57.788Z,-6.20
2018-02-27T19:57:25.658Z,-6.10
2018-02-27T19:59:53.457Z,-6.10
2018-02-27T20:02:21.091Z,-6.20
2018-02-27T20:04:48.692Z,-6.10
2018-02-27T20:07:16.334Z,-6.10
2018-02-27T20:09:46.897Z,-6.10
2018-02-27T20:12:14.546Z,-6.20
2018-02-27T20:14:42.181Z,-6.20
2018-02-27T20:17:10.540Z,-6.20
2018-02-27T20:19:38.114Z,-6.20
2018-02-27T20:22:06.481Z,-6.10
2018-02-27T20:24:34.182Z,-6.10
2018-02-27T20:27:01.970Z,-6.10
2018-02-27T20:29:29.685Z,-6.00
2018-02-27T20:31:58.321Z,-6.00
2018-02-27T20:34:26.559Z,-6.10
2018-02-27T20:36:54.132Z,-6.00
2018-02-27T20:39:23.760Z,-5.90
2018-02-27T20:41:51.549Z,-5.90
2018-02-27T20:44:19.125Z,-6.00
2018-02-27T20:46:46.738Z,-6.00
2018-02-27T20:49:14.336Z,-6.00
2018-02-27T20:51:42.253Z,-6.10
2018-02-27T20:54:10.691Z,-6.10
2018-02-27T20:56:39.069Z,-6.20
2018-02-27T20:59:06.718Z,-6.30
2018-02-27T21:01:36.878Z,-6.30
2018-02-27T21:04:05.475Z,-6.40
2018-02-27T21:06:33.256Z,-6.40
2018-02-27T21:09:01.030Z,-6.50
2018-02-27T21:11:28.611Z,-6.50
2018-02-27T21:13:56.443Z,-6.50
2018-02-27T21:16:24.991Z,-6.70
2018-02-27T21:18:52.993Z,-6.70
2018-02-27T21:21:21.624Z,-6.80
2018-02-27T21:23:49.275Z,-6.90
2018-02-27T21:26:16.876Z,-7.00
2018-02-27T21:28:45.372Z,-7.20
2018-02-27T21:31:13.039Z,-7.20
2018-02-27T21:33:40.689Z,-7.30
2018-02-27T21:36:08.292Z,-7.40
2018-02-27T21:38:35.850Z,-7.40
2018-02-27T21:41:03.903Z,-7.40
2018-02-27T21:43:31.591Z,-7.40
2018-02-27T21:45:59.906Z,-7.40
2018-02-27T21:48:28.323Z,-7.70
2018-02-27T21:50:55.939Z,-7.70
2018-02-27T21:53:24.629Z,-7.80
2018-02-27T21:55:52.432Z,-7.90
2018-02-27T21:58:20.108Z,-8.00
2018-02-27T22:00:47.678Z,-8.00
2018-02-27T22:03:15.412Z,-8.00
2018-02-27T22:05:43.174Z,-8.00
2018-02-27T22:08:10.809Z,-8.00
2018-02-27T22:10:40.070Z,-8.10
2018-02-27T22:13:07.740Z,-8.10
2018-02-27T22:15:35.505Z,-8.10
2018-02-27T22:18:03.092Z,-8.00
2018-02-27T22:20:30.800Z,-8.00
2018-02-27T22:22:58.454Z,-8.10
2018-02-27T22:25:26.022Z,-8.10
2018-02-27T22:27:53.618Z,-8.10
2018-02-27T22:30:21.781Z,-8.10
2018-02-27T22:32:49.310Z,-8.20
2018-02-27T22:35:16.939Z,-8.20
2018-02-27T22:37:44.550Z,-8.30
2018-02-27T22:40:12.199Z,-8.30
2018-02-27T22:42:40.013Z,-8.30
2018-02-27T22:45:07.732Z,-8.40
2018-02-27T22:47:35.272Z,-8.50
2018-02-27T22:50:02.867Z,-8.50
2018-02-27T22:52:30.469Z,-8.50
2018-02-27T22:54:58.889Z,-8.60
2018-02-27T22:57:26.451Z,-8.60
2018-02-27T22:59:54.015Z,-8.60
2018-02-27T23:02:21.633Z,-8.60
2018-02-27T23:04:50.117Z,-8.70
2018-02-27T23:07:17.779Z,-8.70
2018-02-27T23:09:47.239Z,-8.80
2018-02-27T23:12:14.754Z,-8.80
2018-02-27T23:14:43.073Z,-8.80
2018-02-27T23:17:11.359Z,-8.80
2018-02-27T23:19:38.966Z,-8.90
2018-02-27T23:22:07.879Z,-8.90
2018-02-27T23:24:37.373Z,-8.90
2018-02-27T23:27:05.592Z,-8.90
2018-02-27T23:29:35.002Z,-8.90
2018-02-27T23:32:03.464Z,-8.90
2018-02-27T23:34:37.078Z,-8.90
2018-02-27T23:37:04.610Z,-8.90
2018-02-27T23:39:32.192Z,-9.00
2018-02-27T23:41:59.783Z,-9.00
2018-02-27T23:44:27.375Z,-9.00
2018-02-27T23:46:55.720Z,-9.10
2018-02-27T23:49:24.258Z,-9.10
2018-02-27T23:51:52.375Z,-9.10
2018-02-27T23:54:19.979Z,-9.10
2018-02-27T23:56:47.572Z,-9.10
2018-02-27T23:59:15.310Z,-9.20
